createdAt,value
2023-03-23T15:59:11.900Z,2.90
2023-03-23T16:04:19.446Z,3.88
2023-03-23T16:09:22.006Z,4.10
2023-03-23T16:14:25.666Z,3.13
2023-03-23T16:19:29.869Z,4.32
2023-03-23T16:24:33.411Z,6.18
2023-03-23T16:34:43.026Z,11.15
2023-03-23T16:39:46.515Z,6.65
2023-03-23T16:44:51.237Z,5.47
2023-03-23T16:49:55.080Z,6.13
2023-03-23T16:54:57.945Z,5.30
2023-03-23T17:00:00.758Z,7.18
2023-03-23T17:05:03.808Z,7.13
2023-03-23T17:10:09.044Z,6.63
2023-03-23T17:20:41.676Z,9.05
2023-03-23T17:25:46.900Z,7.82
2023-03-23T17:35:54.982Z,7.80
2023-03-23T17:41:00.323Z,6.82
2023-03-23T17:46:02.979Z,6.30
2023-03-23T17:51:06.196Z,8.68
2023-03-23T17:56:09.486Z,8.73
2023-03-23T18:01:12.260Z,7.55
2023-03-23T18:06:15.053Z,9.25
2023-03-23T18:11:17.679Z,7.97
2023-03-23T18:16:20.320Z,7.55
2023-03-23T18:21:23.366Z,6.95
2023-03-23T18:26:26.192Z,9.40
2023-03-23T18:31:29.173Z,9.25
2023-03-23T18:36:31.970Z,7.30
2023-03-23T18:41:34.574Z,6.95
2023-03-23T18:46:37.457Z,6.45
2023-03-23T18:51:40.151Z,5.53
2023-03-23T18:56:42.769Z,6.13
2023-03-23T19:01:45.519Z,5.00
2023-03-23T19:06:51.234Z,5.70
2023-03-23T19:11:53.894Z,4.55
2023-03-23T19:16:56.702Z,5.72
2023-03-23T19:22:00.122Z,6.82
2023-03-23T19:27:02.835Z,6.53
2023-03-23T19:32:06.461Z,6.07
2023-03-23T19:37:11.215Z,6.28
2023-03-23T19:42:17.092Z,6.07
2023-03-23T19:47:19.739Z,7.88
2023-03-23T19:52:22.830Z,7.32
2023-03-23T19:57:27.018Z,8.27
2023-03-23T20:02:30.187Z,7.72
2023-03-23T20:07:33.130Z,7.65
2023-03-23T20:12:36.646Z,10.68
2023-03-23T20:17:40.050Z,8.23
2023-03-23T20:22:42.914Z,8.88
2023-03-23T20:27:46.630Z,7.85
2023-03-23T20:32:49.336Z,7.75
2023-03-23T20:37:52.777Z,7.32
2023-03-23T20:42:57.833Z,9.20
2023-03-23T20:48:02.165Z,9.43
2023-03-23T20:53:04.965Z,8.35
2023-03-23T20:58:08.180Z,8.10
2023-03-23T21:03:16.178Z,8.15
2023-03-23T21:08:19.186Z,8.50
2023-03-23T21:13:21.807Z,8.77
2023-03-23T21:18:24.320Z,7.57
2023-03-23T21:23:29.674Z,7.57
2023-03-23T21:28:32.866Z,6.93
2023-03-23T21:33:35.871Z,7.88
2023-03-23T21:40:14.137Z,6.75
2023-03-23T21:45:21.249Z,6.10
2023-03-23T21:50:25.258Z,5.90
2023-03-23T21:55:29.668Z,5.50
2023-03-23T22:00:32.672Z,6.90
2023-03-23T22:05:39.336Z,6.10
2023-03-23T22:10:43.693Z,5.45
2023-03-23T22:16:07.672Z,4.90
2023-03-23T22:21:11.548Z,6.25
2023-03-23T22:26:16.612Z,5.68
2023-03-23T22:36:29.967Z,6.93
2023-03-23T22:41:38.015Z,5.47
2023-03-23T22:46:41.788Z,5.75
2023-03-23T22:51:44.672Z,4.35
2023-03-23T22:56:47.390Z,4.50
2023-03-23T23:01:50.072Z,3.78
2023-03-23T23:07:00.418Z,3.65
2023-03-23T23:12:14.645Z,3.22
2023-03-23T23:17:17.281Z,3.30
2023-03-23T23:22:20.119Z,3.10
2023-03-23T23:27:22.750Z,2.85
2023-03-23T23:32:27.061Z,2.55
2023-03-23T23:37:29.700Z,2.27
2023-03-23T23:42:32.269Z,2.30
2023-03-23T23:47:34.994Z,1.80
2023-03-23T23:52:39.048Z,2.15
2023-03-23T23:57:42.416Z,2.60
